Chantaco — FMLM — position and weather

sailwx.info

Track history (hours):
 
Tides and Currents Weather Stations Pressure Air Temp Water Temp Dewpoint Dewpoint Depression Visibility Wind Speed Wind Dir Waves Ship Positions

Chantaco

Last reported at 2017-Jan-19 20:33 UTC. Time now 2017-Jan-19 21:30 UTC.
Position N 53°09' E 001°31'.

Length 143 m; draft 6.6 m.

Type: Tanker. MMSI: 228330700.

Date/timePositionNaut miles runAvg speedWind from/ knotsBaromVisibWave heightAir tempDewpointWater temp
2017-Jan-19 20:33N 53°09' E 001°31'6 6.5
2017-Jan-19 19:33N 53°06' E 001°40'7 6.6
2017-Jan-19 18:33N 53°04' E 001°50'6 6.5
2017-Jan-19 17:33N 53°02' E 002°00'6 6.0
2017-Jan-19 16:33N 52°59' E 002°10'6 5.7
2017-Jan-19 15:34N 52°57' E 002°18'7 5.7
2017-Jan-19 14:17N 52°51' E 002°26'5 5.6
2017-Jan-19 13:28N 52°48' E 002°31'9 8.7
2017-Jan-19 12:24N 52°42' E 002°43'28 5.8
2017-Jan-19 07:33N 52°20' E 003°12'6 6.1
2017-Jan-19 06:32N 52°16' E 003°20'8 8.1
2017-Jan-19 05:33N 52°11' E 003°29'5 5.5
2017-Jan-19 04:33N 52°07' E 003°36'6 5.8
2017-Jan-19 03:33N 52°05' E 003°44'8 7.7
2017-Jan-19 02:33N 52°02' E 003°56'1111.0
2017-Jan-19 01:34N 51°56' E 004°11'2 1.6
2017-Jan-19 00:33N 51°55' E 004°13'0 0.0
2017-Jan-18 23:33N 51°55' E 004°13'0 0.0
2017-Jan-18 22:31N 51°55' E 004°13'0 0.0
2017-Jan-18 21:31N 51°55' E 004°13'0 0.0
2017-Jan-18 20:33N 51°55' E 004°13'0 0.0
2017-Jan-18 19:33N 51°55' E 004°13'0 0.0
2017-Jan-18 18:33N 51°55' E 004°13'0 0.0
2017-Jan-18 17:33N 51°55' E 004°13'0 0.0
2017-Jan-18 16:33N 51°55' E 004°13'0 0.0
2017-Jan-18 15:33N 51°55' E 004°13'0 0.0
2017-Jan-18 14:30N 51°55' E 004°13'0 0.0
2017-Jan-18 13:33N 51°55' E 004°13'0 0.0
2017-Jan-18 12:30N 51°55' E 004°13'0 0.0
2017-Jan-18 11:33N 51°55' E 004°13'0 0.0
2017-Jan-18 10:33N 51°55' E 004°13'0 0.0
2017-Jan-18 09:33N 51°55' E 004°13'0 0.0
2017-Jan-18 08:30N 51°55' E 004°13'0 0.0
2017-Jan-18 07:33N 51°55' E 004°13'0 0.0
2017-Jan-18 06:33N 51°55' E 004°13'0 0.0
2017-Jan-18 05:33N 51°55' E 004°13'0 0.0
2017-Jan-18 04:27N 51°55' E 004°13'0 0.0
2017-Jan-18 03:33N 51°55' E 004°13'0 0.0
2017-Jan-18 02:33N 51°55' E 004°13'0 0.0
2017-Jan-18 01:33N 51°55' E 004°13'0 0.0
2017-Jan-18 00:33N 51°55' E 004°13'0 0.0
2017-Jan-17 23:33N 51°55' E 004°13'0 0.0
2017-Jan-17 22:33N 51°55' E 004°13'0 0.0
2017-Jan-17 21:30N 51°55' E 004°13'0 0.0
2017-Jan-17 20:33N 51°55' E 004°13'0 0.0
2017-Jan-17 19:33N 51°55' E 004°13'0 0.0
2017-Jan-17 18:33N 51°55' E 004°13'1 1.5
2017-Jan-17 17:33N 51°56' E 004°11'1110.9
2017-Jan-17 16:33N 52°00' E 003°55'9 9.0
2017-Jan-17 15:33N 52°07' E 003°45'1 1.2
2017-Jan-17 14:32N 52°08' E 003°44'0 0.0
2017-Jan-17 13:33N 52°08' E 003°44'0 0.0
2017-Jan-17 12:27N 52°08' E 003°44'0 0.0
2017-Jan-17 11:32N 52°08' E 003°44'0 0.0
2017-Jan-17 10:32N 52°08' E 003°44'0 0.1
2017-Jan-17 09:26N 52°08' E 003°44'0 0.0
2017-Jan-17 08:32N 52°08' E 003°44'0 0.0
2017-Jan-17 07:29N 52°08' E 003°44'0 0.0
2017-Jan-17 06:32N 52°08' E 003°44'0 0.0
2017-Jan-17 05:29N 52°08' E 003°44'0 0.0
2017-Jan-17 04:26N 52°08' E 003°44'0 0.1
2017-Jan-17 03:32N 52°08' E 003°44'0 0.1
2017-Jan-17 02:32N 52°08' E 003°44'0 0.0
2017-Jan-17 01:26N 52°08' E 003°44'0 0.0
2017-Jan-17 00:32N 52°08' E 003°44'0 0.0
2017-Jan-16 23:32N 52°08' E 003°44'0 0.0
2017-Jan-16 22:32N 52°08' E 003°44'0 0.0
2017-Jan-16 21:32N 52°08' E 003°44'0 0.1
2017-Jan-16 20:23N 52°08' E 003°44'0 0.1
2017-Jan-16 19:32N 52°08' E 003°44'0 0.0
2017-Jan-16 17:23N 52°08' E 003°44'0 0.0
2017-Jan-16 16:32N 52°08' E 003°44'0 0.0
2017-Jan-16 15:32N 52°08' E 003°44'0 0.2
2017-Jan-16 14:32N 52°08' E 003°44'0 0.0
2017-Jan-16 13:29N 52°08' E 003°44'0 0.0
2017-Jan-16 12:23N 52°08' E 003°44'0 0.0
2017-Jan-16 11:32N 52°08' E 003°44'0 0.0
2017-Jan-16 10:32N 52°08' E 003°44'0 0.0
2017-Jan-16 09:31N 52°08' E 003°44'0 0.0
2017-Jan-16 08:32N 52°08' E 003°44'0 0.1
2017-Jan-16 07:32N 52°08' E 003°44'0 0.0
2017-Jan-16 05:32N 52°08' E 003°44'0 0.0
2017-Jan-16 04:32N 52°08' E 003°44'0 0.0
2017-Jan-16 03:17N 52°08' E 003°44'0 0.1
2017-Jan-16 02:20N 52°08' E 003°44'0 0.1
2017-Jan-16 01:31N 52°08' E 003°44'0 0.0
2017-Jan-16 00:31N 52°08' E 003°44'0 0.0
2017-Jan-15 23:31N 52°08' E 003°44'0 0.0
2017-Jan-15 22:31N 52°08' E 003°44'0 0.0
2017-Jan-15 21:25N 52°08' E 003°44'0 0.1
2017-Jan-15 19:28N 52°08' E 003°44'0 0.0
2017-Jan-15 16:25N 52°08' E 003°44'4 4.8
2017-Jan-15 15:34N 52°10' E 003°38'7812.7
2017-Jan-15 09:28N 53°01' E 002°02'1314.9
2017-Jan-15 08:33N 53°06' E 001°41'1514.5
2017-Jan-15 07:33N 53°13' E 001°20'4112.5
2017-Jan-15 04:16N 53°32' E 000°19'6 9.1
2017-Jan-15 03:34N 53°34' E 000°08'9 9.4
2017-Jan-15 02:33N 53°37' W 000°06'2 2.0
2017-Jan-15 01:31N 53°38' W 000°10'0 0.0
2017-Jan-15 00:31N 53°38' W 000°10'0 0.0
2017-Jan-14 23:31N 53°38' W 000°10'0 0.0
2017-Jan-14 22:31N 53°38' W 000°10'0 0.0
2017-Jan-14 21:31N 53°38' W 000°10'0 0.0
2017-Jan-14 20:31N 53°38' W 000°10'0 0.0
2017-Jan-14 19:31N 53°38' W 000°10'0 0.0
2017-Jan-14 18:31N 53°38' W 000°10'0 0.0
2017-Jan-14 17:31N 53°38' W 000°10'0 0.0
2017-Jan-14 16:28N 53°38' W 000°10'0 0.0
2017-Jan-14 15:31N 53°38' W 000°10'0 0.0
2017-Jan-14 14:31N 53°38' W 000°10'0 0.0
2017-Jan-14 13:31N 53°38' W 000°10'0 0.0
2017-Jan-14 12:31N 53°38' W 000°10'0 0.0
2017-Jan-14 11:31N 53°38' W 000°10'0 0.0
2017-Jan-14 10:31N 53°38' W 000°10'0 0.0
2017-Jan-14 09:31N 53°38' W 000°10'0 0.0
2017-Jan-14 08:28N 53°38' W 000°10'0 0.0
2017-Jan-14 07:33N 53°38' W 000°10'0 0.0
2017-Jan-14 06:33N 53°38' W 000°10'0 0.0
2017-Jan-14 05:33N 53°38' W 000°10'0 0.0
2017-Jan-14 04:33N 53°38' W 000°10'0 0.0
2017-Jan-14 03:33N 53°38' W 000°10'0 0.0
2017-Jan-13 23:33N 53°38' W 000°10'0 0.0
2017-Jan-13 22:33N 53°38' W 000°10'0 0.0
2017-Jan-13 21:33N 53°38' W 000°10'0 0.0
2017-Jan-13 20:33N 53°38' W 000°10'0 0.0
2017-Jan-13 19:33N 53°38' W 000°10'0 0.0
2017-Jan-13 18:33N 53°38' W 000°10'0 0.0
2017-Jan-13 17:33N 53°38' W 000°10'0 0.0
2017-Jan-13 16:33N 53°38' W 000°10'0 0.0
2017-Jan-13 15:33N 53°38' W 000°10'0 0.0
2017-Jan-13 14:33N 53°38' W 000°10'0 0.0
2017-Jan-13 13:33N 53°38' W 000°10'2 1.6
2017-Jan-13 12:33N 53°37' W 000°07'1110.6
2017-Jan-13 11:33N 53°33' E 000°09'  
Track history (hours):
 
Tides and Currents Weather Stations Pressure Air Temp Water Temp Dewpoint Dewpoint Depression Visibility Wind Speed Wind Dir Waves Ship Positions

Chantaco

Last reported at 2017-Jan-19 20:33 UTC. Time now 2017-Jan-19 21:30 UTC.
Position N 53°09' E 001°31'.

Length 143 m; draft 6.6 m.

Type: Tanker. MMSI: 228330700.

Date/timePositionNaut miles runAvg speedWind from/ knotsBaromVisibWave heightAir tempDewpointWater temp
2017-Jan-19 20:33N 53°09' E 001°31'6 6.5
2017-Jan-19 19:33N 53°06' E 001°40'7 6.6
2017-Jan-19 18:33N 53°04' E 001°50'6 6.5
2017-Jan-19 17:33N 53°02' E 002°00'6 6.0
2017-Jan-19 16:33N 52°59' E 002°10'6 5.7
2017-Jan-19 15:34N 52°57' E 002°18'7 5.7
2017-Jan-19 14:17N 52°51' E 002°26'5 5.6
2017-Jan-19 13:28N 52°48' E 002°31'9 8.7
2017-Jan-19 12:24N 52°42' E 002°43'28 5.8
2017-Jan-19 07:33N 52°20' E 003°12'6 6.1
2017-Jan-19 06:32N 52°16' E 003°20'8 8.1
2017-Jan-19 05:33N 52°11' E 003°29'5 5.5
2017-Jan-19 04:33N 52°07' E 003°36'6 5.8
2017-Jan-19 03:33N 52°05' E 003°44'8 7.7
2017-Jan-19 02:33N 52°02' E 003°56'1111.0
2017-Jan-19 01:34N 51°56' E 004°11'2 1.6
2017-Jan-19 00:33N 51°55' E 004°13'0 0.0
2017-Jan-18 23:33N 51°55' E 004°13'0 0.0
2017-Jan-18 22:31N 51°55' E 004°13'0 0.0
2017-Jan-18 21:31N 51°55' E 004°13'0 0.0
2017-Jan-18 20:33N 51°55' E 004°13'0 0.0
2017-Jan-18 19:33N 51°55' E 004°13'0 0.0
2017-Jan-18 18:33N 51°55' E 004°13'0 0.0
2017-Jan-18 17:33N 51°55' E 004°13'0 0.0
2017-Jan-18 16:33N 51°55' E 004°13'0 0.0
2017-Jan-18 15:33N 51°55' E 004°13'0 0.0
2017-Jan-18 14:30N 51°55' E 004°13'0 0.0
2017-Jan-18 13:33N 51°55' E 004°13'0 0.0
2017-Jan-18 12:30N 51°55' E 004°13'0 0.0
2017-Jan-18 11:33N 51°55' E 004°13'0 0.0
2017-Jan-18 10:33N 51°55' E 004°13'0 0.0
2017-Jan-18 09:33N 51°55' E 004°13'0 0.0
2017-Jan-18 08:30N 51°55' E 004°13'0 0.0
2017-Jan-18 07:33N 51°55' E 004°13'0 0.0
2017-Jan-18 06:33N 51°55' E 004°13'0 0.0
2017-Jan-18 05:33N 51°55' E 004°13'0 0.0
2017-Jan-18 04:27N 51°55' E 004°13'0 0.0
2017-Jan-18 03:33N 51°55' E 004°13'0 0.0
2017-Jan-18 02:33N 51°55' E 004°13'0 0.0
2017-Jan-18 01:33N 51°55' E 004°13'0 0.0
2017-Jan-18 00:33N 51°55' E 004°13'0 0.0
2017-Jan-17 23:33N 51°55' E 004°13'0 0.0
2017-Jan-17 22:33N 51°55' E 004°13'0 0.0
2017-Jan-17 21:30N 51°55' E 004°13'0 0.0
2017-Jan-17 20:33N 51°55' E 004°13'0 0.0
2017-Jan-17 19:33N 51°55' E 004°13'0 0.0
2017-Jan-17 18:33N 51°55' E 004°13'1 1.5
2017-Jan-17 17:33N 51°56' E 004°11'1110.9
2017-Jan-17 16:33N 52°00' E 003°55'9 9.0
2017-Jan-17 15:33N 52°07' E 003°45'1 1.2
2017-Jan-17 14:32N 52°08' E 003°44'0 0.0
2017-Jan-17 13:33N 52°08' E 003°44'0 0.0
2017-Jan-17 12:27N 52°08' E 003°44'0 0.0
2017-Jan-17 11:32N 52°08' E 003°44'0 0.0
2017-Jan-17 10:32N 52°08' E 003°44'0 0.1
2017-Jan-17 09:26N 52°08' E 003°44'0 0.0
2017-Jan-17 08:32N 52°08' E 003°44'0 0.0
2017-Jan-17 07:29N 52°08' E 003°44'0 0.0
2017-Jan-17 06:32N 52°08' E 003°44'0 0.0
2017-Jan-17 05:29N 52°08' E 003°44'0 0.0
2017-Jan-17 04:26N 52°08' E 003°44'0 0.1
2017-Jan-17 03:32N 52°08' E 003°44'0 0.1
2017-Jan-17 02:32N 52°08' E 003°44'0 0.0
2017-Jan-17 01:26N 52°08' E 003°44'0 0.0
2017-Jan-17 00:32N 52°08' E 003°44'0 0.0
2017-Jan-16 23:32N 52°08' E 003°44'0 0.0
2017-Jan-16 22:32N 52°08' E 003°44'0 0.0
2017-Jan-16 21:32N 52°08' E 003°44'0 0.1
2017-Jan-16 20:23N 52°08' E 003°44'0 0.1
2017-Jan-16 19:32N 52°08' E 003°44'0 0.0
2017-Jan-16 17:23N 52°08' E 003°44'0 0.0
2017-Jan-16 16:32N 52°08' E 003°44'0 0.0
2017-Jan-16 15:32N 52°08' E 003°44'0 0.2
2017-Jan-16 14:32N 52°08' E 003°44'0 0.0
2017-Jan-16 13:29N 52°08' E 003°44'0 0.0
2017-Jan-16 12:23N 52°08' E 003°44'0 0.0
2017-Jan-16 11:32N 52°08' E 003°44'0 0.0
2017-Jan-16 10:32N 52°08' E 003°44'0 0.0
2017-Jan-16 09:31N 52°08' E 003°44'0 0.0
2017-Jan-16 08:32N 52°08' E 003°44'0 0.1
2017-Jan-16 07:32N 52°08' E 003°44'0 0.0
2017-Jan-16 05:32N 52°08' E 003°44'0 0.0
2017-Jan-16 04:32N 52°08' E 003°44'0 0.0
2017-Jan-16 03:17N 52°08' E 003°44'0 0.1
2017-Jan-16 02:20N 52°08' E 003°44'0 0.1
2017-Jan-16 01:31N 52°08' E 003°44'0 0.0
2017-Jan-16 00:31N 52°08' E 003°44'0 0.0
2017-Jan-15 23:31N 52°08' E 003°44'0 0.0
2017-Jan-15 22:31N 52°08' E 003°44'0 0.0
2017-Jan-15 21:25N 52°08' E 003°44'0 0.1
2017-Jan-15 19:28N 52°08' E 003°44'0 0.0
2017-Jan-15 16:25N 52°08' E 003°44'4 4.8
2017-Jan-15 15:34N 52°10' E 003°38'7812.7
2017-Jan-15 09:28N 53°01' E 002°02'1314.9
2017-Jan-15 08:33N 53°06' E 001°41'1514.5
2017-Jan-15 07:33N 53°13' E 001°20'4112.5
2017-Jan-15 04:16N 53°32' E 000°19'6 9.1
2017-Jan-15 03:34N 53°34' E 000°08'9 9.4
2017-Jan-15 02:33N 53°37' W 000°06'2 2.0
2017-Jan-15 01:31N 53°38' W 000°10'0 0.0
2017-Jan-15 00:31N 53°38' W 000°10'0 0.0
2017-Jan-14 23:31N 53°38' W 000°10'0 0.0
2017-Jan-14 22:31N 53°38' W 000°10'0 0.0
2017-Jan-14 21:31N 53°38' W 000°10'0 0.0
2017-Jan-14 20:31N 53°38' W 000°10'0 0.0
2017-Jan-14 19:31N 53°38' W 000°10'0 0.0
2017-Jan-14 18:31N 53°38' W 000°10'0 0.0
2017-Jan-14 17:31N 53°38' W 000°10'0 0.0
2017-Jan-14 16:28N 53°38' W 000°10'0 0.0
2017-Jan-14 15:31N 53°38' W 000°10'0 0.0
2017-Jan-14 14:31N 53°38' W 000°10'0 0.0
2017-Jan-14 13:31N 53°38' W 000°10'0 0.0
2017-Jan-14 12:31N 53°38' W 000°10'0 0.0
2017-Jan-14 11:31N 53°38' W 000°10'0 0.0
2017-Jan-14 10:31N 53°38' W 000°10'0 0.0
2017-Jan-14 09:31N 53°38' W 000°10'0 0.0
2017-Jan-14 08:28N 53°38' W 000°10'0 0.0
2017-Jan-14 07:33N 53°38' W 000°10'0 0.0
2017-Jan-14 06:33N 53°38' W 000°10'0 0.0
2017-Jan-14 05:33N 53°38' W 000°10'0 0.0
2017-Jan-14 04:33N 53°38' W 000°10'0 0.0
2017-Jan-14 03:33N 53°38' W 000°10'0 0.0
2017-Jan-13 23:33N 53°38' W 000°10'0 0.0
2017-Jan-13 22:33N 53°38' W 000°10'0 0.0
2017-Jan-13 21:33N 53°38' W 000°10'0 0.0
2017-Jan-13 20:33N 53°38' W 000°10'0 0.0
2017-Jan-13 19:33N 53°38' W 000°10'0 0.0
2017-Jan-13 18:33N 53°38' W 000°10'0 0.0
2017-Jan-13 17:33N 53°38' W 000°10'0 0.0
2017-Jan-13 16:33N 53°38' W 000°10'0 0.0
2017-Jan-13 15:33N 53°38' W 000°10'0 0.0
2017-Jan-13 14:33N 53°38' W 000°10'0 0.0
2017-Jan-13 13:33N 53°38' W 000°10'2 1.6
2017-Jan-13 12:33N 53°37' W 000°07'1110.6
2017-Jan-13 11:33N 53°33' E 000°09'  

Dump ship's entire track history